sensor_id;sensor_type;location;lat;lon;timestamp;pressure;altitude;pressure_sealevel;temperature
11792;BMP180;5953;52.372;9.918;2022-11-20T00:00:54;100474.00;;;2.30
11792;BMP180;5953;52.372;9.918;2022-11-20T00:03:22;100468.00;;;2.20
11792;BMP180;5953;52.372;9.918;2022-11-20T00:05:50;100464.00;;;2.20
11792;BMP180;5953;52.372;9.918;2022-11-20T00:08:18;100459.00;;;2.00
11792;BMP180;5953;52.372;9.918;2022-11-20T00:10:46;100462.00;;;2.00
11792;BMP180;5953;52.372;9.918;2022-11-20T00:13:15;100462.00;;;2.10
11792;BMP180;5953;52.372;9.918;2022-11-20T00:15:43;100463.00;;;1.80
11792;BMP180;5953;52.372;9.918;2022-11-20T00:18:11;100462.00;;;1.90
11792;BMP180;5953;52.372;9.918;2022-11-20T00:20:39;100450.00;;;2.00
11792;BMP180;5953;52.372;9.918;2022-11-20T00:23:06;100469.00;;;2.00
11792;BMP180;5953;52.372;9.918;2022-11-20T00:25:34;100468.00;;;1.90
11792;BMP180;5953;52.372;9.918;2022-11-20T00:28:02;100453.00;;;2.00
11792;BMP180;5953;52.372;9.918;2022-11-20T00:30:31;100457.00;;;2.10
11792;BMP180;5953;52.372;9.918;2022-11-20T00:32:59;100460.00;;;2.00
11792;BMP180;5953;52.372;9.918;2022-11-20T00:35:27;100469.00;;;2.00
11792;BMP180;5953;52.372;9.918;2022-11-20T00:37:55;100455.00;;;2.10
11792;BMP180;5953;52.372;9.918;2022-11-20T00:40:22;100461.00;;;2.10
11792;BMP180;5953;52.372;9.918;2022-11-20T00:42:50;100454.00;;;2.00
11792;BMP180;5953;52.372;9.918;2022-11-20T00:45:18;100467.00;;;2.00
11792;BMP180;5953;52.372;9.918;2022-11-20T00:47:47;100466.00;;;1.90
11792;BMP180;5953;52.372;9.918;2022-11-20T00:50:15;100433.00;;;2.00
11792;BMP180;5953;52.372;9.918;2022-11-20T00:52:43;100450.00;;;1.90
11792;BMP180;5953;52.372;9.918;2022-11-20T00:55:11;100448.00;;;1.90
11792;BMP180;5953;52.372;9.918;2022-11-20T00:57:39;100443.00;;;2.00
11792;BMP180;5953;52.372;9.918;2022-11-20T01:00:07;100450.00;;;1.90
11792;BMP180;5953;52.372;9.918;2022-11-20T01:02:35;100452.00;;;1.90
11792;BMP180;5953;52.372;9.918;2022-11-20T01:05:05;100440.00;;;2.00
11792;BMP180;5953;52.372;9.918;2022-11-20T01:07:33;100445.00;;;2.00
11792;BMP180;5953;52.372;9.918;2022-11-20T01:10:01;100424.00;;;2.00
11792;BMP180;5953;52.372;9.918;2022-11-20T01:12:28;100455.00;;;2.00
11792;BMP180;5953;52.372;9.918;2022-11-20T01:14:56;100443.00;;;1.90
11792;BMP180;5953;52.372;9.918;2022-11-20T01:17:24;100444.00;;;1.60
11792;BMP180;5953;52.372;9.918;2022-11-20T01:19:52;100441.00;;;1.50
11792;BMP180;5953;52.372;9.918;2022-11-20T01:22:21;100438.00;;;1.50
11792;BMP180;5953;52.372;9.918;2022-11-20T01:24:49;100445.00;;;1.50
11792;BMP180;5953;52.372;9.918;2022-11-20T01:27:17;100435.00;;;1.40
11792;BMP180;5953;52.372;9.918;2022-11-20T01:29:44;100443.00;;;1.50
11792;BMP180;5953;52.372;9.918;2022-11-20T01:32:12;100442.00;;;1.60
11792;BMP180;5953;52.372;9.918;2022-11-20T01:34:40;100436.00;;;1.70
11792;BMP180;5953;52.372;9.918;2022-11-20T01:37:08;100420.00;;;1.80
11792;BMP180;5953;52.372;9.918;2022-11-20T01:39:37;100426.00;;;1.80
11792;BMP180;5953;52.372;9.918;2022-11-20T01:42:04;100421.00;;;1.70
11792;BMP180;5953;52.372;9.918;2022-11-20T01:44:53;100419.00;;;1.70
11792;BMP180;5953;52.372;9.918;2022-11-20T01:47:25;100408.00;;;1.70
11792;BMP180;5953;52.372;9.918;2022-11-20T01:49:56;100419.00;;;1.70
11792;BMP180;5953;52.372;9.918;2022-11-20T01:52:30;100407.00;;;1.70
11792;BMP180;5953;52.372;9.918;2022-11-20T01:55:03;100414.00;;;1.80
11792;BMP180;5953;52.372;9.918;2022-11-20T01:57:33;100406.00;;;1.60
11792;BMP180;5953;52.372;9.918;2022-11-20T02:00:05;100408.00;;;1.60
11792;BMP180;5953;52.372;9.918;2022-11-20T02:02:33;100409.00;;;1.70
11792;BMP180;5953;52.372;9.918;2022-11-20T02:05:07;100401.00;;;1.70
11792;BMP180;5953;52.372;9.918;2022-11-20T02:07:37;100401.00;;;1.70
11792;BMP180;5953;52.372;9.918;2022-11-20T02:10:07;100386.00;;;1.80
11792;BMP180;5953;52.372;9.918;2022-11-20T02:12:35;100410.00;;;1.90
11792;BMP180;5953;52.372;9.918;2022-11-20T02:15:20;100405.00;;;2.00
11792;BMP180;5953;52.372;9.918;2022-11-20T02:17:55;100408.00;;;2.10
11792;BMP180;5953;52.372;9.918;2022-11-20T02:20:23;100394.00;;;2.10
11792;BMP180;5953;52.372;9.918;2022-11-20T02:22:55;100384.00;;;2.00
11792;BMP180;5953;52.372;9.918;2022-11-20T02:25:26;100413.00;;;2.00
11792;BMP180;5953;52.372;9.918;2022-11-20T02:27:55;100405.00;;;2.20
11792;BMP180;5953;52.372;9.918;2022-11-20T02:30:23;100392.00;;;2.30
11792;BMP180;5953;52.372;9.918;2022-11-20T02:32:51;100392.00;;;2.30
11792;BMP180;5953;52.372;9.918;2022-11-20T02:35:42;100385.00;;;2.40
11792;BMP180;5953;52.372;9.918;2022-11-20T02:38:10;100380.00;;;2.50
11792;BMP180;5953;52.372;9.918;2022-11-20T02:40:40;100381.00;;;2.50
11792;BMP180;5953;52.372;9.918;2022-11-20T02:43:08;100387.00;;;2.40
11792;BMP180;5953;52.372;9.918;2022-11-20T02:45:36;100380.00;;;2.50
11792;BMP180;5953;52.372;9.918;2022-11-20T02:48:06;100381.00;;;2.60
11792;BMP180;5953;52.372;9.918;2022-11-20T02:50:36;100380.00;;;2.60
11792;BMP180;5953;52.372;9.918;2022-11-20T02:53:04;100374.00;;;2.20
11792;BMP180;5953;52.372;9.918;2022-11-20T02:55:32;100373.00;;;2.00
11792;BMP180;5953;52.372;9.918;2022-11-20T02:58:02;100386.00;;;2.20
11792;BMP180;5953;52.372;9.918;2022-11-20T03:00:29;100381.00;;;2.30
11792;BMP180;5953;52.372;9.918;2022-11-20T03:02:58;100374.00;;;2.40
11792;BMP180;5953;52.372;9.918;2022-11-20T03:05:26;100350.00;;;2.50
11792;BMP180;5953;52.372;9.918;2022-11-20T03:07:53;100373.00;;;2.50
11792;BMP180;5953;52.372;9.918;2022-11-20T03:10:21;100380.00;;;2.60
11792;BMP180;5953;52.372;9.918;2022-11-20T03:12:52;100382.00;;;2.60
11792;BMP180;5953;52.372;9.918;2022-11-20T03:15:22;100379.00;;;2.60
11792;BMP180;5953;52.372;9.918;2022-11-20T03:17:53;100352.00;;;2.60
11792;BMP180;5953;52.372;9.918;2022-11-20T03:20:21;100372.00;;;2.60
11792;BMP180;5953;52.372;9.918;2022-11-20T03:22:49;100380.00;;;2.60
11792;BMP180;5953;52.372;9.918;2022-11-20T03:25:17;100358.00;;;2.50
11792;BMP180;5953;52.372;9.918;2022-11-20T03:27:44;100363.00;;;2.40
11792;BMP180;5953;52.372;9.918;2022-11-20T03:30:13;100358.00;;;2.40
11792;BMP180;5953;52.372;9.918;2022-11-20T03:32:42;100369.00;;;2.40
11792;BMP180;5953;52.372;9.918;2022-11-20T03:35:10;100371.00;;;2.30
11792;BMP180;5953;52.372;9.918;2022-11-20T03:37:38;100363.00;;;2.30
11792;BMP180;5953;52.372;9.918;2022-11-20T03:40:07;100358.00;;;2.40
11792;BMP180;5953;52.372;9.918;2022-11-20T03:42:35;100357.00;;;2.30
11792;BMP180;5953;52.372;9.918;2022-11-20T03:45:15;100342.00;;;2.40
11792;BMP180;5953;52.372;9.918;2022-11-20T03:47:45;100323.00;;;2.30
11792;BMP180;5953;52.372;9.918;2022-11-20T03:50:13;100354.00;;;2.20
11792;BMP180;5953;52.372;9.918;2022-11-20T03:52:41;100343.00;;;2.30
11792;BMP180;5953;52.372;9.918;2022-11-20T03:55:09;100344.00;;;2.30
11792;BMP180;5953;52.372;9.918;2022-11-20T03:57:37;100353.00;;;2.40
11792;BMP180;5953;52.372;9.918;2022-11-20T04:00:06;100347.00;;;2.30
11792;BMP180;5953;52.372;9.918;2022-11-20T04:02:34;100341.00;;;2.10
11792;BMP180;5953;52.372;9.918;2022-11-20T04:05:03;100350.00;;;2.10
11792;BMP180;5953;52.372;9.918;2022-11-20T04:07:33;100341.00;;;2.10
11792;BMP180;5953;52.372;9.918;2022-11-20T04:10:01;100342.00;;;2.20
11792;BMP180;5953;52.372;9.918;2022-11-20T04:12:31;100319.00;;;1.90
11792;BMP180;5953;52.372;9.918;2022-11-20T04:14:59;100335.00;;;1.80
11792;BMP180;5953;52.372;9.918;2022-11-20T04:17:27;100333.00;;;1.80
11792;BMP180;5953;52.372;9.918;2022-11-20T04:19:55;100332.00;;;1.80
11792;BMP180;5953;52.372;9.918;2022-11-20T04:22:24;100303.00;;;1.80
11792;BMP180;5953;52.372;9.918;2022-11-20T04:24:52;100319.00;;;1.70
11792;BMP180;5953;52.372;9.918;2022-11-20T04:27:20;100317.00;;;1.40
11792;BMP180;5953;52.372;9.918;2022-11-20T04:29:48;100309.00;;;1.50
11792;BMP180;5953;52.372;9.918;2022-11-20T04:32:17;100338.00;;;1.50
11792;BMP180;5953;52.372;9.918;2022-11-20T04:34:45;100279.00;;;1.40
11792;BMP180;5953;52.372;9.918;2022-11-20T04:37:12;100325.00;;;1.60
11792;BMP180;5953;52.372;9.918;2022-11-20T04:39:42;100324.00;;;1.30
11792;BMP180;5953;52.372;9.918;2022-11-20T04:42:10;100320.00;;;1.40
11792;BMP180;5953;52.372;9.918;2022-11-20T04:44:56;100322.00;;;1.50
11792;BMP180;5953;52.372;9.918;2022-11-20T04:47:24;100317.00;;;1.30
11792;BMP180;5953;52.372;9.918;2022-11-20T04:49:52;100315.00;;;1.10
11792;BMP180;5953;52.372;9.918;2022-11-20T04:52:20;100325.00;;;1.40
11792;BMP180;5953;52.372;9.918;2022-11-20T04:54:49;100330.00;;;1.60
11792;BMP180;5953;52.372;9.918;2022-11-20T04:57:19;100326.00;;;1.80
11792;BMP180;5953;52.372;9.918;2022-11-20T04:59:47;100333.00;;;2.00
11792;BMP180;5953;52.372;9.918;2022-11-20T05:02:15;100332.00;;;2.10
11792;BMP180;5953;52.372;9.918;2022-11-20T05:04:42;100331.00;;;2.00
11792;BMP180;5953;52.372;9.918;2022-11-20T05:07:10;100348.00;;;2.20
11792;BMP180;5953;52.372;9.918;2022-11-20T05:09:38;100334.00;;;2.20
11792;BMP180;5953;52.372;9.918;2022-11-20T05:12:08;100352.00;;;2.10
11792;BMP180;5953;52.372;9.918;2022-11-20T05:14:37;100325.00;;;2.30
11792;BMP180;5953;52.372;9.918;2022-11-20T05:17:05;100306.00;;;2.20
11792;BMP180;5953;52.372;9.918;2022-11-20T05:19:32;100325.00;;;1.90
11792;BMP180;5953;52.372;9.918;2022-11-20T05:22:00;100324.00;;;2.10
11792;BMP180;5953;52.372;9.918;2022-11-20T05:24:28;100315.00;;;2.10
11792;BMP180;5953;52.372;9.918;2022-11-20T05:26:55;100335.00;;;2.10
11792;BMP180;5953;52.372;9.918;2022-11-20T05:29:25;100322.00;;;2.20
11792;BMP180;5953;52.372;9.918;2022-11-20T05:31:52;100315.00;;;1.90
11792;BMP180;5953;52.372;9.918;2022-11-20T05:34:20;100306.00;;;1.70
11792;BMP180;5953;52.372;9.918;2022-11-20T05:36:48;100314.00;;;2.00
11792;BMP180;5953;52.372;9.918;2022-11-20T05:39:16;100305.00;;;1.50
11792;BMP180;5953;52.372;9.918;2022-11-20T05:41:44;100301.00;;;1.40
11792;BMP180;5953;52.372;9.918;2022-11-20T05:44:12;100302.00;;;1.90
11792;BMP180;5953;52.372;9.918;2022-11-20T05:46:41;100296.00;;;1.90
11792;BMP180;5953;52.372;9.918;2022-11-20T05:49:09;100304.00;;;2.00
11792;BMP180;5953;52.372;9.918;2022-11-20T05:51:36;100297.00;;;1.80
11792;BMP180;5953;52.372;9.918;2022-11-20T05:54:04;100294.00;;;2.00
11792;BMP180;5953;52.372;9.918;2022-11-20T05:56:32;100288.00;;;1.90
11792;BMP180;5953;52.372;9.918;2022-11-20T05:59:00;100287.00;;;2.00
11792;BMP180;5953;52.372;9.918;2022-11-20T06:01:27;100294.00;;;2.10
11792;BMP180;5953;52.372;9.918;2022-11-20T06:03:57;100288.00;;;2.10
11792;BMP180;5953;52.372;9.918;2022-11-20T06:06:24;100288.00;;;2.10
11792;BMP180;5953;52.372;9.918;2022-11-20T06:08:52;100294.00;;;2.00
11792;BMP180;5953;52.372;9.918;2022-11-20T06:11:20;100296.00;;;2.00
11792;BMP180;5953;52.372;9.918;2022-11-20T06:13:48;100288.00;;;1.70
11792;BMP180;5953;52.372;9.918;2022-11-20T06:16:17;100278.00;;;2.10
11792;BMP180;5953;52.372;9.918;2022-11-20T06:18:46;100290.00;;;1.60
11792;BMP180;5953;52.372;9.918;2022-11-20T06:21:17;100282.00;;;1.70
11792;BMP180;5953;52.372;9.918;2022-11-20T06:23:45;100297.00;;;1.70
11792;BMP180;5953;52.372;9.918;2022-11-20T06:26:15;100292.00;;;1.90
11792;BMP180;5953;52.372;9.918;2022-11-20T06:28:43;100288.00;;;2.00
11792;BMP180;5953;52.372;9.918;2022-11-20T06:31:13;100288.00;;;1.80
11792;BMP180;5953;52.372;9.918;2022-11-20T06:33:42;100285.00;;;1.90
11792;BMP180;5953;52.372;9.918;2022-11-20T06:36:10;100288.00;;;2.10
11792;BMP180;5953;52.372;9.918;2022-11-20T06:38:40;100299.00;;;2.20
11792;BMP180;5953;52.372;9.918;2022-11-20T06:41:11;100291.00;;;2.30
11792;BMP180;5953;52.372;9.918;2022-11-20T06:43:39;100288.00;;;1.50
11792;BMP180;5953;52.372;9.918;2022-11-20T06:46:09;100280.00;;;2.00
11792;BMP180;5953;52.372;9.918;2022-11-20T06:48:38;100282.00;;;2.10
11792;BMP180;5953;52.372;9.918;2022-11-20T06:51:07;100273.00;;;2.20
11792;BMP180;5953;52.372;9.918;2022-11-20T06:53:35;100279.00;;;2.00
11792;BMP180;5953;52.372;9.918;2022-11-20T06:56:06;100268.00;;;2.00
11792;BMP180;5953;52.372;9.918;2022-11-20T06:58:35;100265.00;;;2.00
11792;BMP180;5953;52.372;9.918;2022-11-20T07:01:04;100275.00;;;2.10
11792;BMP180;5953;52.372;9.918;2022-11-20T07:03:33;100252.00;;;2.10
11792;BMP180;5953;52.372;9.918;2022-11-20T07:06:01;100255.00;;;1.90
11792;BMP180;5953;52.372;9.918;2022-11-20T07:08:29;100262.00;;;1.90
11792;BMP180;5953;52.372;9.918;2022-11-20T07:10:57;100265.00;;;2.00
11792;BMP180;5953;52.372;9.918;2022-11-20T07:13:28;100261.00;;;2.00
11792;BMP180;5953;52.372;9.918;2022-11-20T07:15:59;100261.00;;;1.70
11792;BMP180;5953;52.372;9.918;2022-11-20T07:18:28;100280.00;;;1.80
11792;BMP180;5953;52.372;9.918;2022-11-20T07:20:55;100239.00;;;1.70
11792;BMP180;5953;52.372;9.918;2022-11-20T07:23:23;100276.00;;;1.80
11792;BMP180;5953;52.372;9.918;2022-11-20T07:25:53;100262.00;;;1.70
11792;BMP180;5953;52.372;9.918;2022-11-20T07:28:21;100269.00;;;1.60
11792;BMP180;5953;52.372;9.918;2022-11-20T07:30:51;100276.00;;;1.80
11792;BMP180;5953;52.372;9.918;2022-11-20T07:33:20;100272.00;;;1.70
11792;BMP180;5953;52.372;9.918;2022-11-20T07:35:47;100269.00;;;1.70
11792;BMP180;5953;52.372;9.918;2022-11-20T07:38:15;100275.00;;;2.00
11792;BMP180;5953;52.372;9.918;2022-11-20T07:40:43;100272.00;;;2.10
11792;BMP180;5953;52.372;9.918;2022-11-20T07:43:10;100278.00;;;2.10
11792;BMP180;5953;52.372;9.918;2022-11-20T07:45:38;100271.00;;;2.10
11792;BMP180;5953;52.372;9.918;2022-11-20T07:48:07;100267.00;;;2.20
11792;BMP180;5953;52.372;9.918;2022-11-20T07:50:35;100283.00;;;2.20
11792;BMP180;5953;52.372;9.918;2022-11-20T07:53:04;100281.00;;;2.30
11792;BMP180;5953;52.372;9.918;2022-11-20T07:55:32;100278.00;;;2.40
11792;BMP180;5953;52.372;9.918;2022-11-20T07:58:00;100272.00;;;2.40
11792;BMP180;5953;52.372;9.918;2022-11-20T08:00:28;100281.00;;;2.40
11792;BMP180;5953;52.372;9.918;2022-11-20T08:02:55;100287.00;;;2.40
11792;BMP180;5953;52.372;9.918;2022-11-20T08:05:25;100275.00;;;2.40
11792;BMP180;5953;52.372;9.918;2022-11-20T08:07:52;100245.00;;;2.50
11792;BMP180;5953;52.372;9.918;2022-11-20T08:10:20;100283.00;;;2.40
11792;BMP180;5953;52.372;9.918;2022-11-20T08:12:49;100271.00;;;2.30
11792;BMP180;5953;52.372;9.918;2022-11-20T08:15:36;100274.00;;;2.30
11792;BMP180;5953;52.372;9.918;2022-11-20T08:18:06;100280.00;;;2.30
11792;BMP180;5953;52.372;9.918;2022-11-20T08:20:55;100258.00;;;2.30
11792;BMP180;5953;52.372;9.918;2022-11-20T08:23:23;100265.00;;;2.30
11792;BMP180;5953;52.372;9.918;2022-11-20T08:25:51;100268.00;;;2.20
11792;BMP180;5953;52.372;9.918;2022-11-20T08:28:22;100253.00;;;1.90
11792;BMP180;5953;52.372;9.918;2022-11-20T08:30:51;100271.00;;;1.60
11792;BMP180;5953;52.372;9.918;2022-11-20T08:33:18;100284.00;;;1.90
11792;BMP180;5953;52.372;9.918;2022-11-20T08:35:46;100267.00;;;2.00
11792;BMP180;5953;52.372;9.918;2022-11-20T08:38:15;100297.00;;;2.00
11792;BMP180;5953;52.372;9.918;2022-11-20T08:40:43;100281.00;;;2.00
11792;BMP180;5953;52.372;9.918;2022-11-20T08:43:31;100272.00;;;1.80
11792;BMP180;5953;52.372;9.918;2022-11-20T08:46:00;100277.00;;;2.00
11792;BMP180;5953;52.372;9.918;2022-11-20T08:48:27;100260.00;;;2.00
11792;BMP180;5953;52.372;9.918;2022-11-20T08:50:57;100280.00;;;2.20
11792;BMP180;5953;52.372;9.918;2022-11-20T08:53:26;100283.00;;;2.30
11792;BMP180;5953;52.372;9.918;2022-11-20T08:55:55;100274.00;;;2.40
11792;BMP180;5953;52.372;9.918;2022-11-20T08:58:23;100246.00;;;2.50
11792;BMP180;5953;52.372;9.918;2022-11-20T09:00:52;100271.00;;;2.50
11792;BMP180;5953;52.372;9.918;2022-11-20T09:03:20;100276.00;;;2.50
11792;BMP180;5953;52.372;9.918;2022-11-20T09:05:47;100288.00;;;2.60
11792;BMP180;5953;52.372;9.918;2022-11-20T09:08:15;100283.00;;;2.60
11792;BMP180;5953;52.372;9.918;2022-11-20T09:10:44;100276.00;;;2.80
11792;BMP180;5953;52.372;9.918;2022-11-20T09:13:12;100293.00;;;2.80
11792;BMP180;5953;52.372;9.918;2022-11-20T09:15:40;100280.00;;;2.70
11792;BMP180;5953;52.372;9.918;2022-11-20T09:18:07;100279.00;;;2.80
11792;BMP180;5953;52.372;9.918;2022-11-20T09:20:36;100268.00;;;2.80
11792;BMP180;5953;52.372;9.918;2022-11-20T09:23:03;100279.00;;;2.80
11792;BMP180;5953;52.372;9.918;2022-11-20T09:25:31;100281.00;;;2.90
11792;BMP180;5953;52.372;9.918;2022-11-20T09:28:00;100267.00;;;2.60
11792;BMP180;5953;52.372;9.918;2022-11-20T09:32:50;100254.00;;;2.50
11792;BMP180;5953;52.372;9.918;2022-11-20T09:38:34;100268.00;;;2.70
11792;BMP180;5953;52.372;9.918;2022-11-20T09:41:22;100230.00;;;2.80
11792;BMP180;5953;52.372;9.918;2022-11-20T09:44:13;100234.00;;;2.90
11792;BMP180;5953;52.372;9.918;2022-11-20T09:46:53;100270.00;;;3.10
11792;BMP180;5953;52.372;9.918;2022-11-20T09:50:31;100233.00;;;3.20
11792;BMP180;5953;52.372;9.918;2022-11-20T09:54:05;100238.00;;;3.40
11792;BMP180;5953;52.372;9.918;2022-11-20T09:57:29;100214.00;;;3.50
11792;BMP180;5953;52.372;9.918;2022-11-20T10:00:05;100277.00;;;3.70
11792;BMP180;5953;52.372;9.918;2022-11-20T10:02:47;100239.00;;;3.70
11792;BMP180;5953;52.372;9.918;2022-11-20T10:05:18;100233.00;;;3.70
11792;BMP180;5953;52.372;9.918;2022-11-20T10:07:59;100265.00;;;3.60
11792;BMP180;5953;52.372;9.918;2022-11-20T10:10:41;100267.00;;;3.60
11792;BMP180;5953;52.372;9.918;2022-11-20T10:13:34;100259.00;;;3.50
11792;BMP180;5953;52.372;9.918;2022-11-20T10:16:26;100256.00;;;3.40
11792;BMP180;5953;52.372;9.918;2022-11-20T10:19:22;100220.00;;;3.60
11792;BMP180;5953;52.372;9.918;2022-11-20T10:25:22;100253.00;;;3.70
11792;BMP180;5953;52.372;9.918;2022-11-20T10:28:14;100269.00;;;3.90
11792;BMP180;5953;52.372;9.918;2022-11-20T10:30:46;100254.00;;;4.00
11792;BMP180;5953;52.372;9.918;2022-11-20T10:33:19;100246.00;;;4.00
11792;BMP180;5953;52.372;9.918;2022-11-20T10:35:52;100246.00;;;4.20
11792;BMP180;5953;52.372;9.918;2022-11-20T10:38:26;100244.00;;;3.90
11792;BMP180;5953;52.372;9.918;2022-11-20T10:41:00;100235.00;;;4.00
11792;BMP180;5953;52.372;9.918;2022-11-20T10:43:43;100235.00;;;4.10
11792;BMP180;5953;52.372;9.918;2022-11-20T10:46:14;100233.00;;;4.00
11792;BMP180;5953;52.372;9.918;2022-11-20T10:48:45;100228.00;;;4.20
11792;BMP180;5953;52.372;9.918;2022-11-20T10:51:21;100231.00;;;4.30
11792;BMP180;5953;52.372;9.918;2022-11-20T10:53:56;100223.00;;;4.40
11792;BMP180;5953;52.372;9.918;2022-11-20T10:56:31;100218.00;;;4.30
11792;BMP180;5953;52.372;9.918;2022-11-20T10:59:27;100225.00;;;4.30
11792;BMP180;5953;52.372;9.918;2022-11-20T11:01:55;100220.00;;;4.50
11792;BMP180;5953;52.372;9.918;2022-11-20T11:04:35;100216.00;;;4.60
11792;BMP180;5953;52.372;9.918;2022-11-20T11:07:08;100214.00;;;4.50
11792;BMP180;5953;52.372;9.918;2022-11-20T11:09:42;100218.00;;;4.50
11792;BMP180;5953;52.372;9.918;2022-11-20T11:12:10;100224.00;;;4.50
11792;BMP180;5953;52.372;9.918;2022-11-20T11:14:43;100214.00;;;4.50
11792;BMP180;5953;52.372;9.918;2022-11-20T11:17:27;100207.00;;;4.30
11792;BMP180;5953;52.372;9.918;2022-11-20T11:20:16;100204.00;;;4.50
11792;BMP180;5953;52.372;9.918;2022-11-20T11:22:47;100206.00;;;4.60
11792;BMP180;5953;52.372;9.918;2022-11-20T11:25:20;100207.00;;;4.80
11792;BMP180;5953;52.372;9.918;2022-11-20T11:27:49;100199.00;;;4.90
11792;BMP180;5953;52.372;9.918;2022-11-20T11:30:19;100191.00;;;5.00
11792;BMP180;5953;52.372;9.918;2022-11-20T11:32:47;100192.00;;;4.90
11792;BMP180;5953;52.372;9.918;2022-11-20T11:35:24;100198.00;;;5.00
11792;BMP180;5953;52.372;9.918;2022-11-20T11:37:55;100199.00;;;5.10
11792;BMP180;5953;52.372;9.918;2022-11-20T11:40:31;100186.00;;;5.20
11792;BMP180;5953;52.372;9.918;2022-11-20T11:43:03;100196.00;;;5.30
11792;BMP180;5953;52.372;9.918;2022-11-20T11:45:31;100197.00;;;5.40
11792;BMP180;5953;52.372;9.918;2022-11-20T11:48:00;100200.00;;;5.60
11792;BMP180;5953;52.372;9.918;2022-11-20T11:50:33;100197.00;;;5.70
11792;BMP180;5953;52.372;9.918;2022-11-20T11:53:08;100196.00;;;5.90
11792;BMP180;5953;52.372;9.918;2022-11-20T11:55:39;100190.00;;;5.80
11792;BMP180;5953;52.372;9.918;2022-11-20T11:58:14;100187.00;;;5.70
11792;BMP180;5953;52.372;9.918;2022-11-20T12:00:50;100199.00;;;5.70
11792;BMP180;5953;52.372;9.918;2022-11-20T12:03:21;100187.00;;;5.90
11792;BMP180;5953;52.372;9.918;2022-11-20T12:05:57;100197.00;;;5.90
11792;BMP180;5953;52.372;9.918;2022-11-20T12:08:29;100192.00;;;5.90
11792;BMP180;5953;52.372;9.918;2022-11-20T12:11:03;100187.00;;;5.90
11792;BMP180;5953;52.372;9.918;2022-11-20T12:13:44;100181.00;;;5.90
11792;BMP180;5953;52.372;9.918;2022-11-20T12:16:14;100176.00;;;5.80
11792;BMP180;5953;52.372;9.918;2022-11-20T12:18:42;100175.00;;;5.70
11792;BMP180;5953;52.372;9.918;2022-11-20T12:21:18;100161.00;;;5.90
11792;BMP180;5953;52.372;9.918;2022-11-20T12:24:08;100174.00;;;5.90
11792;BMP180;5953;52.372;9.918;2022-11-20T12:26:51;100168.00;;;6.10
11792;BMP180;5953;52.372;9.918;2022-11-20T12:29:31;100172.00;;;6.10
11792;BMP180;5953;52.372;9.918;2022-11-20T12:32:14;100174.00;;;6.10
11792;BMP180;5953;52.372;9.918;2022-11-20T12:34:55;100166.00;;;6.20
11792;BMP180;5953;52.372;9.918;2022-11-20T12:37:35;100171.00;;;6.30
11792;BMP180;5953;52.372;9.918;2022-11-20T12:40:18;100163.00;;;6.40
11792;BMP180;5953;52.372;9.918;2022-11-20T12:43:01;100162.00;;;6.30
11792;BMP180;5953;52.372;9.918;2022-11-20T12:46:08;100171.00;;;6.00
11792;BMP180;5953;52.372;9.918;2022-11-20T12:49:02;100167.00;;;6.30
11792;BMP180;5953;52.372;9.918;2022-11-20T12:51:55;100161.00;;;6.30
11792;BMP180;5953;52.372;9.918;2022-11-20T12:55:01;100151.00;;;6.30
11792;BMP180;5953;52.372;9.918;2022-11-20T12:57:38;100153.00;;;6.50
11792;BMP180;5953;52.372;9.918;2022-11-20T13:00:13;100158.00;;;6.50
11792;BMP180;5953;52.372;9.918;2022-11-20T13:03:06;100166.00;;;6.60
11792;BMP180;5953;52.372;9.918;2022-11-20T13:05:45;100152.00;;;6.60
11792;BMP180;5953;52.372;9.918;2022-11-20T13:08:20;100157.00;;;6.50
11792;BMP180;5953;52.372;9.918;2022-11-20T13:10:55;100149.00;;;6.20
11792;BMP180;5953;52.372;9.918;2022-11-20T13:13:31;100166.00;;;6.50
11792;BMP180;5953;52.372;9.918;2022-11-20T13:16:04;100150.00;;;6.50
11792;BMP180;5953;52.372;9.918;2022-11-20T13:18:41;100156.00;;;6.20
11792;BMP180;5953;52.372;9.918;2022-11-20T13:21:16;100162.00;;;6.20
11792;BMP180;5953;52.372;9.918;2022-11-20T13:23:43;100150.00;;;6.30
11792;BMP180;5953;52.372;9.918;2022-11-20T13:26:18;100158.00;;;6.40
11792;BMP180;5953;52.372;9.918;2022-11-20T13:28:58;100164.00;;;6.30
11792;BMP180;5953;52.372;9.918;2022-11-20T13:31:31;100163.00;;;6.40
11792;BMP180;5953;52.372;9.918;2022-11-20T13:34:02;100147.00;;;6.40
11792;BMP180;5953;52.372;9.918;2022-11-20T13:36:30;100151.00;;;6.50
11792;BMP180;5953;52.372;9.918;2022-11-20T13:38:58;100144.00;;;6.50
11792;BMP180;5953;52.372;9.918;2022-11-20T13:41:29;100145.00;;;6.50
11792;BMP180;5953;52.372;9.918;2022-11-20T13:44:09;100140.00;;;6.40
11792;BMP180;5953;52.372;9.918;2022-11-20T13:46:40;100139.00;;;6.40
11792;BMP180;5953;52.372;9.918;2022-11-20T13:49:16;100140.00;;;6.40
11792;BMP180;5953;52.372;9.918;2022-11-20T13:51:46;100130.00;;;6.30
11792;BMP180;5953;52.372;9.918;2022-11-20T13:54:42;100137.00;;;6.30
11792;BMP180;5953;52.372;9.918;2022-11-20T13:57:40;100135.00;;;6.40
11792;BMP180;5953;52.372;9.918;2022-11-20T14:00:13;100140.00;;;6.30
11792;BMP180;5953;52.372;9.918;2022-11-20T14:02:41;100144.00;;;6.30
11792;BMP180;5953;52.372;9.918;2022-11-20T14:05:18;100139.00;;;6.30
11792;BMP180;5953;52.372;9.918;2022-11-20T14:07:47;100140.00;;;6.20
11792;BMP180;5953;52.372;9.918;2022-11-20T14:10:20;100151.00;;;6.30
11792;BMP180;5953;52.372;9.918;2022-11-20T14:12:56;100145.00;;;6.30
11792;BMP180;5953;52.372;9.918;2022-11-20T14:15:26;100139.00;;;6.40
11792;BMP180;5953;52.372;9.918;2022-11-20T14:17:54;100140.00;;;6.40
11792;BMP180;5953;52.372;9.918;2022-11-20T14:20:24;100139.00;;;6.40
11792;BMP180;5953;52.372;9.918;2022-11-20T14:22:54;100134.00;;;6.40
11792;BMP180;5953;52.372;9.918;2022-11-20T14:25:23;100135.00;;;6.40
11792;BMP180;5953;52.372;9.918;2022-11-20T14:27:55;100131.00;;;6.40
11792;BMP180;5953;52.372;9.918;2022-11-20T14:30:26;100131.00;;;6.50
11792;BMP180;5953;52.372;9.918;2022-11-20T14:32:57;100130.00;;;6.40
11792;BMP180;5953;52.372;9.918;2022-11-20T14:35:30;100118.00;;;6.30
11792;BMP180;5953;52.372;9.918;2022-11-20T14:37:58;100124.00;;;6.30
11792;BMP180;5953;52.372;9.918;2022-11-20T14:40:28;100117.00;;;6.30
11792;BMP180;5953;52.372;9.918;2022-11-20T14:42:57;100109.00;;;6.30
11792;BMP180;5953;52.372;9.918;2022-11-20T14:45:27;100100.00;;;6.20
11792;BMP180;5953;52.372;9.918;2022-11-20T14:47:56;100100.00;;;6.20
11792;BMP180;5953;52.372;9.918;2022-11-20T14:50:27;100092.00;;;6.20
11792;BMP180;5953;52.372;9.918;2022-11-20T14:52:57;100096.00;;;6.30
11792;BMP180;5953;52.372;9.918;2022-11-20T14:55:27;100103.00;;;6.20
11792;BMP180;5953;52.372;9.918;2022-11-20T14:57:56;100090.00;;;6.20